sensor_id;sensor_type;location;lat;lon;timestamp;temperature;humidity
32476;DHT22;18929;48.008;10.882;2023-08-20T00:01:21;27.60;99.90
32476;DHT22;18929;48.008;10.882;2023-08-20T00:03:50;27.60;99.90
32476;DHT22;18929;48.008;10.882;2023-08-20T00:06:18;27.50;99.90
32476;DHT22;18929;48.008;10.882;2023-08-20T00:08:45;27.40;99.90
32476;DHT22;18929;48.008;10.882;2023-08-20T00:11:12;27.20;99.90
32476;DHT22;18929;48.008;10.882;2023-08-20T00:13:39;27.10;99.90
32476;DHT22;18929;48.008;10.882;2023-08-20T00:16:07;27.10;99.90
32476;DHT22;18929;48.008;10.882;2023-08-20T00:18:34;27.20;99.90
32476;DHT22;18929;48.008;10.882;2023-08-20T00:21:03;27.10;99.90
32476;DHT22;18929;48.008;10.882;2023-08-20T00:23:30;27.10;99.90
32476;DHT22;18929;48.008;10.882;2023-08-20T00:25:57;27.00;99.90
32476;DHT22;18929;48.008;10.882;2023-08-20T00:28:24;27.10;99.90
32476;DHT22;18929;48.008;10.882;2023-08-20T00:30:51;27.00;99.90
32476;DHT22;18929;48.008;10.882;2023-08-20T00:33:17;27.00;99.90
32476;DHT22;18929;48.008;10.882;2023-08-20T00:35:44;27.10;99.90
32476;DHT22;18929;48.008;10.882;2023-08-20T00:38:12;27.10;99.90
32476;DHT22;18929;48.008;10.882;2023-08-20T00:40:39;27.10;99.90
32476;DHT22;18929;48.008;10.882;2023-08-20T00:43:06;27.00;99.90
32476;DHT22;18929;48.008;10.882;2023-08-20T00:45:33;26.90;99.90
32476;DHT22;18929;48.008;10.882;2023-08-20T00:48:00;26.70;99.90
32476;DHT22;18929;48.008;10.882;2023-08-20T00:50:27;26.70;99.90
32476;DHT22;18929;48.008;10.882;2023-08-20T00:52:54;26.70;99.90
32476;DHT22;18929;48.008;10.882;2023-08-20T00:55:22;26.90;99.90
32476;DHT22;18929;48.008;10.882;2023-08-20T00:57:49;27.00;99.90
32476;DHT22;18929;48.008;10.882;2023-08-20T01:00:16;26.80;99.90
32476;DHT22;18929;48.008;10.882;2023-08-20T01:02:43;26.70;99.90
32476;DHT22;18929;48.008;10.882;2023-08-20T01:05:10;26.60;99.90
32476;DHT22;18929;48.008;10.882;2023-08-20T01:07:39;26.50;99.90
32476;DHT22;18929;48.008;10.882;2023-08-20T01:10:08;26.50;99.90
32476;DHT22;18929;48.008;10.882;2023-08-20T01:12:40;26.50;99.90
32476;DHT22;18929;48.008;10.882;2023-08-20T01:15:07;26.60;99.90
32476;DHT22;18929;48.008;10.882;2023-08-20T01:17:39;26.60;99.90
32476;DHT22;18929;48.008;10.882;2023-08-20T01:20:06;26.50;99.90
32476;DHT22;18929;48.008;10.882;2023-08-20T01:22:39;26.40;99.90
32476;DHT22;18929;48.008;10.882;2023-08-20T01:25:09;26.40;99.90
32476;DHT22;18929;48.008;10.882;2023-08-20T01:27:47;26.30;99.90
32476;DHT22;18929;48.008;10.882;2023-08-20T01:30:19;26.30;99.90
32476;DHT22;18929;48.008;10.882;2023-08-20T01:32:47;26.20;99.90
32476;DHT22;18929;48.008;10.882;2023-08-20T01:35:15;26.20;99.90
32476;DHT22;18929;48.008;10.882;2023-08-20T01:37:42;26.20;99.90
32476;DHT22;18929;48.008;10.882;2023-08-20T01:40:09;26.20;99.90
32476;DHT22;18929;48.008;10.882;2023-08-20T01:42:37;26.10;99.90
32476;DHT22;18929;48.008;10.882;2023-08-20T01:45:05;26.00;99.90
32476;DHT22;18929;48.008;10.882;2023-08-20T01:47:33;26.00;99.90
32476;DHT22;18929;48.008;10.882;2023-08-20T01:50:00;26.10;99.90
32476;DHT22;18929;48.008;10.882;2023-08-20T01:52:29;26.00;99.90
32476;DHT22;18929;48.008;10.882;2023-08-20T01:54:57;25.90;99.90
32476;DHT22;18929;48.008;10.882;2023-08-20T01:57:24;25.90;99.90
32476;DHT22;18929;48.008;10.882;2023-08-20T01:59:51;25.90;99.90
32476;DHT22;18929;48.008;10.882;2023-08-20T02:02:18;25.90;99.90
32476;DHT22;18929;48.008;10.882;2023-08-20T02:04:46;25.90;99.90
32476;DHT22;18929;48.008;10.882;2023-08-20T02:07:13;25.90;99.90
32476;DHT22;18929;48.008;10.882;2023-08-20T02:09:40;25.80;99.90
32476;DHT22;18929;48.008;10.882;2023-08-20T02:12:07;25.70;99.90
32476;DHT22;18929;48.008;10.882;2023-08-20T02:14:34;25.60;99.90
32476;DHT22;18929;48.008;10.882;2023-08-20T02:17:01;25.20;99.90
32476;DHT22;18929;48.008;10.882;2023-08-20T02:19:28;25.60;99.90
32476;DHT22;18929;48.008;10.882;2023-08-20T02:21:56;25.70;99.90
32476;DHT22;18929;48.008;10.882;2023-08-20T02:24:23;25.70;99.90
32476;DHT22;18929;48.008;10.882;2023-08-20T02:26:50;25.60;99.90
32476;DHT22;18929;48.008;10.882;2023-08-20T02:29:16;25.40;99.90
32476;DHT22;18929;48.008;10.882;2023-08-20T02:31:44;25.30;99.90
32476;DHT22;18929;48.008;10.882;2023-08-20T02:34:10;25.40;99.90
32476;DHT22;18929;48.008;10.882;2023-08-20T02:36:37;25.50;99.90
32476;DHT22;18929;48.008;10.882;2023-08-20T02:39:05;25.40;99.90
32476;DHT22;18929;48.008;10.882;2023-08-20T02:41:36;25.40;99.90
32476;DHT22;18929;48.008;10.882;2023-08-20T02:44:03;25.40;99.90
32476;DHT22;18929;48.008;10.882;2023-08-20T02:46:30;25.30;99.90
32476;DHT22;18929;48.008;10.882;2023-08-20T02:48:57;25.20;99.90
32476;DHT22;18929;48.008;10.882;2023-08-20T02:51:23;25.10;99.90
32476;DHT22;18929;48.008;10.882;2023-08-20T02:53:50;25.10;99.90
32476;DHT22;18929;48.008;10.882;2023-08-20T02:56:18;25.10;99.90
32476;DHT22;18929;48.008;10.882;2023-08-20T02:58:45;25.20;99.90
32476;DHT22;18929;48.008;10.882;2023-08-20T03:01:18;25.10;99.90
32476;DHT22;18929;48.008;10.882;2023-08-20T03:03:45;25.10;99.90
32476;DHT22;18929;48.008;10.882;2023-08-20T03:06:12;25.00;99.90
32476;DHT22;18929;48.008;10.882;2023-08-20T03:08:39;25.00;99.90
32476;DHT22;18929;48.008;10.882;2023-08-20T03:11:06;24.90;99.90
32476;DHT22;18929;48.008;10.882;2023-08-20T03:13:34;25.00;99.90
32476;DHT22;18929;48.008;10.882;2023-08-20T03:16:01;25.10;99.90
32476;DHT22;18929;48.008;10.882;2023-08-20T03:18:28;25.00;99.90
32476;DHT22;18929;48.008;10.882;2023-08-20T03:20:55;24.90;99.90
32476;DHT22;18929;48.008;10.882;2023-08-20T03:23:22;24.50;99.90
32476;DHT22;18929;48.008;10.882;2023-08-20T03:25:49;24.10;99.90
32476;DHT22;18929;48.008;10.882;2023-08-20T03:28:17;24.60;99.90
32476;DHT22;18929;48.008;10.882;2023-08-20T03:30:45;24.70;99.90
32476;DHT22;18929;48.008;10.882;2023-08-20T03:33:12;24.70;99.90
32476;DHT22;18929;48.008;10.882;2023-08-20T03:35:40;24.70;99.90
32476;DHT22;18929;48.008;10.882;2023-08-20T03:38:06;24.60;99.90
32476;DHT22;18929;48.008;10.882;2023-08-20T03:40:33;24.20;99.90
32476;DHT22;18929;48.008;10.882;2023-08-20T03:43:00;24.30;99.90
32476;DHT22;18929;48.008;10.882;2023-08-20T03:45:27;24.40;99.90
32476;DHT22;18929;48.008;10.882;2023-08-20T03:47:56;24.40;99.90
32476;DHT22;18929;48.008;10.882;2023-08-20T03:50:23;24.40;99.90
32476;DHT22;18929;48.008;10.882;2023-08-20T03:52:50;24.40;99.90
32476;DHT22;18929;48.008;10.882;2023-08-20T03:55:17;24.30;99.90
32476;DHT22;18929;48.008;10.882;2023-08-20T03:57:43;24.30;99.90
32476;DHT22;18929;48.008;10.882;2023-08-20T04:00:11;24.20;99.90
32476;DHT22;18929;48.008;10.882;2023-08-20T04:02:39;24.30;99.90
32476;DHT22;18929;48.008;10.882;2023-08-20T04:05:07;24.30;99.90
32476;DHT22;18929;48.008;10.882;2023-08-20T04:07:34;24.30;99.90
32476;DHT22;18929;48.008;10.882;2023-08-20T04:10:00;24.20;99.90
32476;DHT22;18929;48.008;10.882;2023-08-20T04:12:27;24.20;99.90
32476;DHT22;18929;48.008;10.882;2023-08-20T04:14:54;24.10;99.90
32476;DHT22;18929;48.008;10.882;2023-08-20T04:17:21;24.10;99.90
32476;DHT22;18929;48.008;10.882;2023-08-20T04:19:48;24.00;99.90
32476;DHT22;18929;48.008;10.882;2023-08-20T04:22:16;24.00;99.90
32476;DHT22;18929;48.008;10.882;2023-08-20T04:24:43;24.00;99.90
32476;DHT22;18929;48.008;10.882;2023-08-20T04:27:10;24.00;99.90
32476;DHT22;18929;48.008;10.882;2023-08-20T04:29:37;24.10;99.90
32476;DHT22;18929;48.008;10.882;2023-08-20T04:32:04;24.00;99.90
32476;DHT22;18929;48.008;10.882;2023-08-20T04:34:31;23.90;99.90
32476;DHT22;18929;48.008;10.882;2023-08-20T04:36:58;23.80;99.90
32476;DHT22;18929;48.008;10.882;2023-08-20T04:39:26;23.80;99.90
32476;DHT22;18929;48.008;10.882;2023-08-20T04:41:53;23.80;99.90
32476;DHT22;18929;48.008;10.882;2023-08-20T04:44:22;23.80;99.90
32476;DHT22;18929;48.008;10.882;2023-08-20T04:46:49;23.80;99.90
32476;DHT22;18929;48.008;10.882;2023-08-20T04:49:18;23.80;99.90
32476;DHT22;18929;48.008;10.882;2023-08-20T04:51:45;23.80;99.90
32476;DHT22;18929;48.008;10.882;2023-08-20T04:54:12;23.70;99.90
32476;DHT22;18929;48.008;10.882;2023-08-20T04:56:40;23.70;99.90
32476;DHT22;18929;48.008;10.882;2023-08-20T04:59:07;23.70;99.90
32476;DHT22;18929;48.008;10.882;2023-08-20T05:01:33;23.70;99.90
32476;DHT22;18929;48.008;10.882;2023-08-20T05:04:00;23.70;99.90
32476;DHT22;18929;48.008;10.882;2023-08-20T05:06:27;23.70;99.90
32476;DHT22;18929;48.008;10.882;2023-08-20T05:08:54;23.70;99.90
32476;DHT22;18929;48.008;10.882;2023-08-20T05:11:20;23.70;99.90
32476;DHT22;18929;48.008;10.882;2023-08-20T05:13:49;23.70;99.90
32476;DHT22;18929;48.008;10.882;2023-08-20T05:16:16;23.80;99.90
32476;DHT22;18929;48.008;10.882;2023-08-20T05:18:42;23.70;99.90
32476;DHT22;18929;48.008;10.882;2023-08-20T05:21:09;23.70;99.90
32476;DHT22;18929;48.008;10.882;2023-08-20T05:23:39;23.70;99.90
32476;DHT22;18929;48.008;10.882;2023-08-20T05:26:05;23.70;99.90
32476;DHT22;18929;48.008;10.882;2023-08-20T05:28:32;23.60;99.90
32476;DHT22;18929;48.008;10.882;2023-08-20T05:31:00;23.40;99.90
32476;DHT22;18929;48.008;10.882;2023-08-20T05:33:27;23.50;99.90
32476;DHT22;18929;48.008;10.882;2023-08-20T05:35:54;23.60;99.90
32476;DHT22;18929;48.008;10.882;2023-08-20T05:38:21;23.70;99.90
32476;DHT22;18929;48.008;10.882;2023-08-20T05:40:47;23.70;99.90
32476;DHT22;18929;48.008;10.882;2023-08-20T05:43:14;23.20;99.90
32476;DHT22;18929;48.008;10.882;2023-08-20T05:45:41;23.40;99.90
32476;DHT22;18929;48.008;10.882;2023-08-20T05:48:09;23.40;99.90
32476;DHT22;18929;48.008;10.882;2023-08-20T05:50:36;23.50;99.90
32476;DHT22;18929;48.008;10.882;2023-08-20T05:53:03;23.60;99.90
32476;DHT22;18929;48.008;10.882;2023-08-20T05:55:30;24.00;99.90
32476;DHT22;18929;48.008;10.882;2023-08-20T05:57:57;24.40;99.90
32476;DHT22;18929;48.008;10.882;2023-08-20T06:00:23;24.10;99.90
32476;DHT22;18929;48.008;10.882;2023-08-20T06:02:50;24.00;99.90
32476;DHT22;18929;48.008;10.882;2023-08-20T06:05:18;24.50;99.90
32476;DHT22;18929;48.008;10.882;2023-08-20T06:07:45;25.20;99.90
32476;DHT22;18929;48.008;10.882;2023-08-20T06:10:12;25.60;99.90
32476;DHT22;18929;48.008;10.882;2023-08-20T06:12:39;24.80;99.90
32476;DHT22;18929;48.008;10.882;2023-08-20T06:15:07;24.50;99.90
32476;DHT22;18929;48.008;10.882;2023-08-20T06:17:34;23.90;99.90
32476;DHT22;18929;48.008;10.882;2023-08-20T06:20:01;23.50;99.90
32476;DHT22;18929;48.008;10.882;2023-08-20T06:22:32;23.30;99.90
32476;DHT22;18929;48.008;10.882;2023-08-20T06:24:59;23.20;99.90
32476;DHT22;18929;48.008;10.882;2023-08-20T06:27:26;23.60;99.90
32476;DHT22;18929;48.008;10.882;2023-08-20T06:29:53;23.70;99.90
32476;DHT22;18929;48.008;10.882;2023-08-20T06:32:19;23.50;99.90
32476;DHT22;18929;48.008;10.882;2023-08-20T06:34:46;23.50;99.90
32476;DHT22;18929;48.008;10.882;2023-08-20T06:37:13;23.00;99.90
32476;DHT22;18929;48.008;10.882;2023-08-20T06:39:41;23.50;99.90
32476;DHT22;18929;48.008;10.882;2023-08-20T06:42:08;23.60;99.90
32476;DHT22;18929;48.008;10.882;2023-08-20T06:44:35;23.90;99.90
32476;DHT22;18929;48.008;10.882;2023-08-20T06:47:01;24.10;99.90
32476;DHT22;18929;48.008;10.882;2023-08-20T06:49:28;24.00;99.90
32476;DHT22;18929;48.008;10.882;2023-08-20T06:51:55;23.90;99.90
32476;DHT22;18929;48.008;10.882;2023-08-20T06:54:22;23.20;99.90
32476;DHT22;18929;48.008;10.882;2023-08-20T06:56:50;22.90;99.90
32476;DHT22;18929;48.008;10.882;2023-08-20T06:59:17;23.00;99.90
32476;DHT22;18929;48.008;10.882;2023-08-20T07:01:44;23.00;99.90
32476;DHT22;18929;48.008;10.882;2023-08-20T07:04:11;23.10;99.90
32476;DHT22;18929;48.008;10.882;2023-08-20T07:06:38;23.30;99.90
32476;DHT22;18929;48.008;10.882;2023-08-20T07:09:05;23.50;99.90
32476;DHT22;18929;48.008;10.882;2023-08-20T07:11:32;23.90;99.90
32476;DHT22;18929;48.008;10.882;2023-08-20T07:14:00;24.10;99.90
32476;DHT22;18929;48.008;10.882;2023-08-20T07:16:27;24.50;99.90
32476;DHT22;18929;48.008;10.882;2023-08-20T07:18:53;24.70;99.90
32476;DHT22;18929;48.008;10.882;2023-08-20T07:21:20;24.40;99.90
32476;DHT22;18929;48.008;10.882;2023-08-20T07:23:47;24.20;99.90
32476;DHT22;18929;48.008;10.882;2023-08-20T07:26:14;24.20;99.90
32476;DHT22;18929;48.008;10.882;2023-08-20T07:28:41;24.30;99.90
32476;DHT22;18929;48.008;10.882;2023-08-20T07:31:24;24.50;99.90
32476;DHT22;18929;48.008;10.882;2023-08-20T07:33:52;24.60;99.90
32476;DHT22;18929;48.008;10.882;2023-08-20T07:36:21;24.60;99.90
32476;DHT22;18929;48.008;10.882;2023-08-20T07:38:48;24.70;99.90
32476;DHT22;18929;48.008;10.882;2023-08-20T07:41:15;24.80;99.90
32476;DHT22;18929;48.008;10.882;2023-08-20T07:43:45;24.90;99.90
32476;DHT22;18929;48.008;10.882;2023-08-20T07:46:12;25.00;99.90
32476;DHT22;18929;48.008;10.882;2023-08-20T07:48:41;25.10;99.90
32476;DHT22;18929;48.008;10.882;2023-08-20T07:51:08;25.10;99.90
32476;DHT22;18929;48.008;10.882;2023-08-20T07:53:34;25.30;99.90
32476;DHT22;18929;48.008;10.882;2023-08-20T07:56:01;25.60;99.90
32476;DHT22;18929;48.008;10.882;2023-08-20T07:58:28;25.70;99.90
32476;DHT22;18929;48.008;10.882;2023-08-20T08:00:55;26.00;99.80
32476;DHT22;18929;48.008;10.882;2023-08-20T08:03:22;26.00;99.30
32476;DHT22;18929;48.008;10.882;2023-08-20T08:05:50;26.20;99.60
32476;DHT22;18929;48.008;10.882;2023-08-20T08:08:17;26.20;99.90
32476;DHT22;18929;48.008;10.882;2023-08-20T08:10:44;25.90;99.90
32476;DHT22;18929;48.008;10.882;2023-08-20T08:13:11;25.70;99.90
32476;DHT22;18929;48.008;10.882;2023-08-20T08:18:09;25.70;99.90
32476;DHT22;18929;48.008;10.882;2023-08-20T08:20:36;25.70;99.90
32476;DHT22;18929;48.008;10.882;2023-08-20T08:23:04;26.30;99.90
32476;DHT22;18929;48.008;10.882;2023-08-20T08:25:31;26.70;99.90
32476;DHT22;18929;48.008;10.882;2023-08-20T08:27:58;26.40;99.90
32476;DHT22;18929;48.008;10.882;2023-08-20T08:30:25;26.20;99.90
32476;DHT22;18929;48.008;10.882;2023-08-20T08:35:23;26.90;99.80
32476;DHT22;18929;48.008;10.882;2023-08-20T08:37:50;27.00;99.90
32476;DHT22;18929;48.008;10.882;2023-08-20T08:40:18;27.10;99.90
32476;DHT22;18929;48.008;10.882;2023-08-20T08:42:46;26.40;99.90
32476;DHT22;18929;48.008;10.882;2023-08-20T08:45:14;26.60;99.90
32476;DHT22;18929;48.008;10.882;2023-08-20T08:47:41;26.70;99.90
32476;DHT22;18929;48.008;10.882;2023-08-20T08:50:08;26.50;99.90
32476;DHT22;18929;48.008;10.882;2023-08-20T08:52:36;27.10;99.90
32476;DHT22;18929;48.008;10.882;2023-08-20T08:55:04;27.30;99.90
32476;DHT22;18929;48.008;10.882;2023-08-20T08:57:34;26.80;99.90
32476;DHT22;18929;48.008;10.882;2023-08-20T09:00:01;27.00;99.90
32476;DHT22;18929;48.008;10.882;2023-08-20T09:02:28;27.50;99.50
32476;DHT22;18929;48.008;10.882;2023-08-20T09:04:55;26.50;99.90
32476;DHT22;18929;48.008;10.882;2023-08-20T09:07:23;26.10;99.90
32476;DHT22;18929;48.008;10.882;2023-08-20T09:09:49;26.80;99.90
32476;DHT22;18929;48.008;10.882;2023-08-20T09:12:17;26.00;99.90
32476;DHT22;18929;48.008;10.882;2023-08-20T09:14:47;25.50;99.90
32476;DHT22;18929;48.008;10.882;2023-08-20T09:17:14;26.00;99.90
32476;DHT22;18929;48.008;10.882;2023-08-20T09:19:42;26.20;99.90
32476;DHT22;18929;48.008;10.882;2023-08-20T09:22:10;27.20;99.40
32476;DHT22;18929;48.008;10.882;2023-08-20T09:24:39;26.60;99.90
32476;DHT22;18929;48.008;10.882;2023-08-20T09:27:08;25.50;99.90
32476;DHT22;18929;48.008;10.882;2023-08-20T09:29:43;27.00;99.90
32476;DHT22;18929;48.008;10.882;2023-08-20T09:32:13;27.40;99.20
32476;DHT22;18929;48.008;10.882;2023-08-20T09:34:40;27.60;99.30
32476;DHT22;18929;48.008;10.882;2023-08-20T09:37:10;27.80;98.40
32476;DHT22;18929;48.008;10.882;2023-08-20T09:39:36;27.50;98.70
32476;DHT22;18929;48.008;10.882;2023-08-20T09:42:04;27.70;98.30
32476;DHT22;18929;48.008;10.882;2023-08-20T09:44:32;27.90;97.80
32476;DHT22;18929;48.008;10.882;2023-08-20T09:46:59;28.60;98.40
32476;DHT22;18929;48.008;10.882;2023-08-20T09:49:28;29.10;97.40
32476;DHT22;18929;48.008;10.882;2023-08-20T09:51:55;28.90;93.80
32476;DHT22;18929;48.008;10.882;2023-08-20T09:56:57;28.80;94.70
32476;DHT22;18929;48.008;10.882;2023-08-20T09:59:26;29.00;92.80
32476;DHT22;18929;48.008;10.882;2023-08-20T10:01:53;28.30;96.00
32476;DHT22;18929;48.008;10.882;2023-08-20T10:04:20;28.00;93.90
32476;DHT22;18929;48.008;10.882;2023-08-20T10:06:49;28.50;95.30
32476;DHT22;18929;48.008;10.882;2023-08-20T10:09:16;29.30;92.40
32476;DHT22;18929;48.008;10.882;2023-08-20T10:11:44;29.00;91.10
32476;DHT22;18929;48.008;10.882;2023-08-20T10:14:11;29.40;91.70
32476;DHT22;18929;48.008;10.882;2023-08-20T10:16:39;29.60;91.30
32476;DHT22;18929;48.008;10.882;2023-08-20T10:19:06;29.80;85.60
32476;DHT22;18929;48.008;10.882;2023-08-20T10:21:33;29.00;92.00
32476;DHT22;18929;48.008;10.882;2023-08-20T10:24:04;29.50;92.70
32476;DHT22;18929;48.008;10.882;2023-08-20T10:26:32;29.50;92.00
32476;DHT22;18929;48.008;10.882;2023-08-20T10:31:45;28.50;94.20
32476;DHT22;18929;48.008;10.882;2023-08-20T10:34:12;28.70;94.60
32476;DHT22;18929;48.008;10.882;2023-08-20T10:36:58;27.70;95.70
32476;DHT22;18929;48.008;10.882;2023-08-20T10:39:29;27.80;94.60
32476;DHT22;18929;48.008;10.882;2023-08-20T10:47:19;29.70;90.30
32476;DHT22;18929;48.008;10.882;2023-08-20T10:49:50;29.60;90.90
32476;DHT22;18929;48.008;10.882;2023-08-20T10:54:51;30.40;90.60
32476;DHT22;18929;48.008;10.882;2023-08-20T10:57:18;30.40;91.40
32476;DHT22;18929;48.008;10.882;2023-08-20T10:59:55;30.10;90.60
32476;DHT22;18929;48.008;10.882;2023-08-20T11:02:22;30.00;91.50
32476;DHT22;18929;48.008;10.882;2023-08-20T11:04:50;30.00;90.80
32476;DHT22;18929;48.008;10.882;2023-08-20T11:07:17;29.90;92.00
32476;DHT22;18929;48.008;10.882;2023-08-20T11:09:44;30.20;88.50
32476;DHT22;18929;48.008;10.882;2023-08-20T11:12:15;30.30;90.00
32476;DHT22;18929;48.008;10.882;2023-08-20T11:14:51;29.60;89.30
32476;DHT22;18929;48.008;10.882;2023-08-20T11:17:18;30.00;91.10
32476;DHT22;18929;48.008;10.882;2023-08-20T11:19:45;29.80;92.10
32476;DHT22;18929;48.008;10.882;2023-08-20T11:22:11;30.10;90.90
32476;DHT22;18929;48.008;10.882;2023-08-20T11:24:42;30.50;90.80
32476;DHT22;18929;48.008;10.882;2023-08-20T11:27:08;30.40;91.10
32476;DHT22;18929;48.008;10.882;2023-08-20T11:29:37;30.40;86.30
32476;DHT22;18929;48.008;10.882;2023-08-20T11:32:03;30.70;86.70
32476;DHT22;18929;48.008;10.882;2023-08-20T11:34:31;30.60;88.00
32476;DHT22;18929;48.008;10.882;2023-08-20T11:36:58;31.00;89.10
32476;DHT22;18929;48.008;10.882;2023-08-20T11:39:24;30.90;87.50
32476;DHT22;18929;48.008;10.882;2023-08-20T11:41:51;30.10;91.30
32476;DHT22;18929;48.008;10.882;2023-08-20T11:44:19;30.00;91.20
32476;DHT22;18929;48.008;10.882;2023-08-20T11:46:47;30.70;90.10
32476;DHT22;18929;48.008;10.882;2023-08-20T11:49:14;30.80;88.90
32476;DHT22;18929;48.008;10.882;2023-08-20T11:51:41;29.80;91.40
32476;DHT22;18929;48.008;10.882;2023-08-20T11:54:09;30.10;87.30
32476;DHT22;18929;48.008;10.882;2023-08-20T11:56:43;30.50;90.50
32476;DHT22;18929;48.008;10.882;2023-08-20T11:59:10;30.10;88.90
32476;DHT22;18929;48.008;10.882;2023-08-20T12:01:37;30.70;86.30
32476;DHT22;18929;48.008;10.882;2023-08-20T12:06:38;30.90;85.80
32476;DHT22;18929;48.008;10.882;2023-08-20T12:09:18;31.00;88.10
32476;DHT22;18929;48.008;10.882;2023-08-20T12:11:47;30.50;84.70
32476;DHT22;18929;48.008;10.882;2023-08-20T12:14:14;30.80;81.80
32476;DHT22;18929;48.008;10.882;2023-08-20T12:16:41;29.50;88.60
32476;DHT22;18929;48.008;10.882;2023-08-20T12:19:08;30.20;88.50
32476;DHT22;18929;48.008;10.882;2023-08-20T12:21:35;30.20;85.80
32476;DHT22;18929;48.008;10.882;2023-08-20T12:24:03;30.90;83.80
32476;DHT22;18929;48.008;10.882;2023-08-20T12:26:30;30.30;88.40
32476;DHT22;18929;48.008;10.882;2023-08-20T12:28:57;30.20;86.10
32476;DHT22;18929;48.008;10.882;2023-08-20T12:31:24;30.90;87.40
32476;DHT22;18929;48.008;10.882;2023-08-20T12:33:50;30.80;86.50
32476;DHT22;18929;48.008;10.882;2023-08-20T12:36:17;30.40;89.10
32476;DHT22;18929;48.008;10.882;2023-08-20T12:38:44;29.80;90.10
32476;DHT22;18929;48.008;10.882;2023-08-20T12:41:12;30.80;88.80
32476;DHT22;18929;48.008;10.882;2023-08-20T12:43:40;30.20;89.20
32476;DHT22;18929;48.008;10.882;2023-08-20T12:46:06;30.80;85.20
32476;DHT22;18929;48.008;10.882;2023-08-20T12:48:33;31.30;85.60
32476;DHT22;18929;48.008;10.882;2023-08-20T12:51:00;30.80;84.70
32476;DHT22;18929;48.008;10.882;2023-08-20T12:53:27;31.40;80.40
32476;DHT22;18929;48.008;10.882;2023-08-20T12:55:54;31.60;80.20
32476;DHT22;18929;48.008;10.882;2023-08-20T12:58:22;31.40;80.50
32476;DHT22;18929;48.008;10.882;2023-08-20T13:00:49;31.50;80.40
32476;DHT22;18929;48.008;10.882;2023-08-20T13:03:16;31.60;80.10
32476;DHT22;18929;48.008;10.882;2023-08-20T13:05:44;31.70;81.00
32476;DHT22;18929;48.008;10.882;2023-08-20T13:08:11;32.00;83.00
32476;DHT22;18929;48.008;10.882;2023-08-20T13:10:46;31.90;83.80
32476;DHT22;18929;48.008;10.882;2023-08-20T13:13:14;32.00;83.00
32476;DHT22;18929;48.008;10.882;2023-08-20T13:15:43;32.00;84.50
32476;DHT22;18929;48.008;10.882;2023-08-20T13:18:11;32.00;83.50
32476;DHT22;18929;48.008;10.882;2023-08-20T13:20:39;32.10;85.30
32476;DHT22;18929;48.008;10.882;2023-08-20T13:23:06;31.90;82.40
32476;DHT22;18929;48.008;10.882;2023-08-20T13:25:33;31.90;84.50
32476;DHT22;18929;48.008;10.882;2023-08-20T13:27:59;32.20;83.40
32476;DHT22;18929;48.008;10.882;2023-08-20T13:30:26;32.20;82.50
32476;DHT22;18929;48.008;10.882;2023-08-20T13:32:54;31.80;81.40
32476;DHT22;18929;48.008;10.882;2023-08-20T13:35:21;31.70;87.30
32476;DHT22;18929;48.008;10.882;2023-08-20T13:37:49;31.40;87.60
32476;DHT22;18929;48.008;10.882;2023-08-20T13:40:16;31.90;84.50
32476;DHT22;18929;48.008;10.882;2023-08-20T13:42:43;31.90;81.80
32476;DHT22;18929;48.008;10.882;2023-08-20T13:45:09;32.10;84.90
32476;DHT22;18929;48.008;10.882;2023-08-20T13:47:36;32.20;81.70
32476;DHT22;18929;48.008;10.882;2023-08-20T13:50:05;32.20;83.30
32476;DHT22;18929;48.008;10.882;2023-08-20T13:52:32;32.40;82.30
32476;DHT22;18929;48.008;10.882;2023-08-20T13:54:58;32.60;85.50
32476;DHT22;18929;48.008;10.882;2023-08-20T13:57:25;32.30;83.30
32476;DHT22;18929;48.008;10.882;2023-08-20T13:59:52;32.20;83.90
32476;DHT22;18929;48.008;10.882;2023-08-20T14:02:19;31.80;83.20
32476;DHT22;18929;48.008;10.882;2023-08-20T14:04:46;31.90;87.20
32476;DHT22;18929;48.008;10.882;2023-08-20T14:07:14;32.00;86.00
32476;DHT22;18929;48.008;10.882;2023-08-20T14:09:41;32.40;83.60
32476;DHT22;18929;48.008;10.882;2023-08-20T14:12:08;32.70;84.90
32476;DHT22;18929;48.008;10.882;2023-08-20T14:14:34;32.60;81.70
32476;DHT22;18929;48.008;10.882;2023-08-20T14:17:01;32.80;83.50
32476;DHT22;18929;48.008;10.882;2023-08-20T14:19:28;32.50;81.20
32476;DHT22;18929;48.008;10.882;2023-08-20T14:21:56;32.50;83.40
32476;DHT22;18929;48.008;10.882;2023-08-20T14:24:24;32.60;83.30
32476;DHT22;18929;48.008;10.882;2023-08-20T14:26:51;32.70;82.00
32476;DHT22;18929;48.008;10.882;2023-08-20T14:29:18;32.70;81.50
32476;DHT22;18929;48.008;10.882;2023-08-20T14:31:44;32.90;84.80
32476;DHT22;18929;48.008;10.882;2023-08-20T14:34:11;32.80;82.10
32476;DHT22;18929;48.008;10.882;2023-08-20T14:36:38;32.90;84.10
32476;DHT22;18929;48.008;10.882;2023-08-20T14:39:05;32.90;79.60
32476;DHT22;18929;48.008;10.882;2023-08-20T14:41:33;33.00;79.10
32476;DHT22;18929;48.008;10.882;2023-08-20T14:44:00;32.80;84.50
32476;DHT22;18929;48.008;10.882;2023-08-20T14:46:27;33.00;82.90
32476;DHT22;18929;48.008;10.882;2023-08-20T14:48:54;33.20;84.30
32476;DHT22;18929;48.008;10.882;2023-08-20T14:51:21;33.10;80.80
32476;DHT22;18929;48.008;10.882;2023-08-20T14:53:48;33.10;80.10
32476;DHT22;18929;48.008;10.882;2023-08-20T14:56:15;32.80;84.00
32476;DHT22;18929;48.008;10.882;2023-08-20T14:58:43;33.00;79.70
32476;DHT22;18929;48.008;10.882;2023-08-20T15:01:10;33.00;78.60
32476;DHT22;18929;48.008;10.882;2023-08-20T15:03:36;32.60;79.70
32476;DHT22;18929;48.008;10.882;2023-08-20T15:06:04;32.80;78.80
32476;DHT22;18929;48.008;10.882;2023-08-20T15:08:31;33.00;78.10
32476;DHT22;18929;48.008;10.882;2023-08-20T15:10:58;33.30;80.30
32476;DHT22;18929;48.008;10.882;2023-08-20T15:13:26;33.40;77.60
32476;DHT22;18929;48.008;10.882;2023-08-20T15:15:54;33.30;76.90
32476;DHT22;18929;48.008;10.882;2023-08-20T15:18:21;33.30;79.00
32476;DHT22;18929;48.008;10.882;2023-08-20T15:20:52;33.10;84.90
32476;DHT22;18929;48.008;10.882;2023-08-20T15:23:20;33.00;78.30
32476;DHT22;18929;48.008;10.882;2023-08-20T15:25:47;33.10;77.90
32476;DHT22;18929;48.008;10.882;2023-08-20T15:28:14;33.30;80.30
32476;DHT22;18929;48.008;10.882;2023-08-20T15:30:41;33.50;78.70
32476;DHT22;18929;48.008;10.882;2023-08-20T15:33:09;33.50;83.10
32476;DHT22;18929;48.008;10.882;2023-08-20T15:35:36;33.30;76.40
32476;DHT22;18929;48.008;10.882;2023-08-20T15:38:03;33.40;77.90